Fishers Island, New York
Current Conditions -  °F | °C
As of 1:56 PM on Thursday 30 Oct 2014 (Local Time) from KGON Reporting Station
Broken Clouds Broken Clouds  
Wind Chill: 58°   Ceiling: 7500
Heat Index: 58°   Visibility: 10mi
Dew Point: 37°   Wind: 10mph
Humidity: 46%   Direction: 300°WNW
Pressure: 29.93"   Gusts: NA
Location:  41.26°N, 72.02°W
Report Text: KGON 301756Z 30009KT 10SM FEW055 BKN075 14/03 A2993 RMK AO2 SLP133 T01440028 10150 20033 58011
Loading
Personal Weather Stations






























Interactive Weather Map
Tropical Storm Tracking
New forecast layout! Learn more

10-Day Weather Forecast

Advertisements
Track Severe Weather on mobile